Time;durP1;ratioP1;P1;durP2;ratioP2;P2;SDS_P1;SDS_P2;PMS_P1;PMS_P2;Temp;Humidity;BMP_temperature;BMP_pressure;BME280_temperature;BME280_humidity;BME280_pressure;Samples;Min_cycle;Max_cycle;Signal;HPM_P1;HPM_P2
2021/12/20 00:02:19;;;;;;;18.77;7.05;;;5.90;87.10;;;;;;6226361;28;20097;-79
2021/12/20 00:05:21;;;;;;;23.38;8.18;;;5.80;86.90;;;;;;6227023;28;20081;-78
2021/12/20 00:08:23;;;;;;;17.30;7.47;;;5.80;87.00;;;;;;6225880;28;20050;-78
2021/12/20 00:11:25;;;;;;;17.30;7.82;;;5.70;87.20;;;;;;6227618;28;20514;-78
2021/12/20 00:14:28;;;;;;;19.30;7.88;;;5.70;87.30;;;;;;6226286;28;20060;-78
2021/12/20 00:17:30;;;;;;;21.15;7.75;;;5.70;87.40;;;;;;6226917;28;20057;-79
2021/12/20 00:20:32;;;;;;;17.52;7.65;;;5.60;87.50;;;;;;6227290;28;20044;-79
2021/12/20 00:23:34;;;;;;;21.63;8.68;;;5.60;87.80;;;;;;6227335;28;20054;-79
2021/12/20 00:26:35;;;;;;;20.88;9.25;;;5.60;87.80;;;;;;6227236;28;20044;-79
2021/12/20 00:29:38;;;;;;;20.80;8.20;;;5.60;87.90;;;;;;6226553;28;20050;-79
2021/12/20 00:32:42;;;;;;;20.70;9.07;;;5.60;87.80;;;;;;6226790;28;20053;-79
2021/12/20 00:35:44;;;;;;;22.85;8.80;;;5.60;87.80;;;;;;6226897;28;20140;-79
2021/12/20 00:42:07;;;;;;;25.08;8.90;;;5.60;88.20;;;;;;6213267;28;20042;-79
2021/12/20 00:45:12;;;;;;;18.85;8.38;;;5.70;88.00;;;;;;6230774;28;20045;-79
2021/12/20 00:48:14;;;;;;;18.33;8.27;;;5.70;87.80;;;;;;6231026;28;20046;-78
2021/12/20 00:51:16;;;;;;;25.17;9.10;;;5.70;87.80;;;;;;6231405;28;20054;-78
2021/12/20 00:54:17;;;;;;;23.02;9.73;;;5.60;88.00;;;;;;6230195;28;20050;-80
2021/12/20 00:57:19;;;;;;;23.40;8.93;;;5.70;88.10;;;;;;6230090;28;20131;-79
2021/12/20 01:00:25;;;;;;;23.33;9.27;;;5.60;88.20;;;;;;6231004;28;20508;-78
2021/12/20 01:03:29;;;;;;;26.10;9.18;;;5.60;88.40;;;;;;6231009;28;20547;-78
2021/12/20 01:06:31;;;;;;;23.80;9.48;;;5.50;88.40;;;;;;6229717;28;20042;-79
2021/12/20 01:09:33;;;;;;;22.90;9.93;;;5.50;88.70;;;;;;6230281;28;20046;-78
2021/12/20 01:12:43;;;;;;;26.85;11.38;;;5.50;88.80;;;;;;6230544;28;20045;-79
2021/12/20 01:15:49;;;;;;;30.25;11.70;;;5.50;88.80;;;;;;6229664;28;20042;-79
2021/12/20 01:18:51;;;;;;;26.48;10.40;;;5.50;88.90;;;;;;6211765;28;20057;-79
2021/12/20 01:21:53;;;;;;;38.75;11.50;;;5.50;89.10;;;;;;6187960;28;20145;-79
2021/12/20 01:24:54;;;;;;;29.17;12.93;;;5.50;89.10;;;;;;6181309;28;20073;-79
2021/12/20 01:27:56;;;;;;;36.88;11.57;;;5.40;89.20;;;;;;6180278;28;20519;-79
2021/12/20 01:31:00;;;;;;;30.05;12.30;;;5.40;89.40;;;;;;6181859;28;20060;-79
2021/12/20 01:34:01;;;;;;;39.33;12.45;;;5.50;89.40;;;;;;6181634;28;20057;-79
2021/12/20 01:37:04;;;;;;;39.72;11.52;;;5.50;89.40;;;;;;6233714;28;20053;-79
2021/12/20 01:40:07;;;;;;;33.40;11.60;;;5.50;89.20;;;;;;6255318;28;20050;-78
2021/12/20 01:43:12;;;;;;;32.00;12.73;;;5.50;89.50;;;;;;6254121;28;20789;-78
2021/12/20 01:46:15;;;;;;;31.30;12.27;;;5.50;89.40;;;;;;6252369;28;20041;-79
2021/12/20 01:49:18;;;;;;;33.28;12.45;;;5.50;89.50;;;;;;6253270;28;20054;-78
2021/12/20 01:52:22;;;;;;;48.45;14.68;;;5.50;89.60;;;;;;6236594;28;20152;-79
2021/12/20 01:55:24;;;;;;;38.47;13.02;;;5.50;89.50;;;;;;6205015;28;20509;-79
2021/12/20 01:58:28;;;;;;;47.65;14.05;;;5.40;89.70;;;;;;6204852;28;20541;-79
2021/12/20 02:01:31;;;;;;;52.35;14.18;;;5.40;89.80;;;;;;6204898;28;20069;-79
2021/12/20 02:04:42;;;;;;;40.15;13.75;;;5.40;89.90;;;;;;6204577;28;20082;-79
2021/12/20 02:07:51;;;;;;;40.90;13.15;;;5.40;89.90;;;;;;6204358;28;20042;-79
2021/12/20 02:10:55;;;;;;;35.78;14.23;;;5.40;89.80;;;;;;6205658;28;20527;-79
2021/12/20 02:13:58;;;;;;;41.60;14.35;;;5.50;89.80;;;;;;6205117;28;20062;-79
2021/12/20 02:17:01;;;;;;;40.22;12.95;;;5.50;89.50;;;;;;6203574;28;20636;-79
2021/12/20 02:20:05;;;;;;;42.13;13.00;;;5.40;89.70;;;;;;6204300;28;20104;-78
2021/12/20 02:23:08;;;;;;;39.30;13.63;;;5.30;89.90;;;;;;6205447;28;20053;-78
2021/12/20 02:26:11;;;;;;;45.40;13.93;;;5.30;90.10;;;;;;6204485;28;20042;-78
2021/12/20 02:29:15;;;;;;;47.40;13.35;;;5.40;90.10;;;;;;6204421;28;20181;-79
2021/12/20 02:38:58;;;;;;;49.35;13.80;;;5.30;90.00;;;;;;6217434;28;20046;-79
2021/12/20 02:42:00;;;;;;;46.53;15.07;;;5.30;90.00;;;;;;6247969;28;20057;-78
2021/12/20 02:45:14;;;;;;;45.83;14.13;;;5.30;90.00;;;;;;6253178;28;20046;-78
2021/12/20 02:48:16;;;;;;;50.00;14.35;;;5.30;89.70;;;;;;6253121;28;20053;-79
2021/12/20 02:51:19;;;;;;;44.10;14.10;;;5.30;89.90;;;;;;6252744;28;20410;-79
2021/12/20 02:54:22;;;;;;;57.28;18.02;;;5.20;90.00;;;;;;6252971;28;20048;-78
2021/12/20 02:57:24;;;;;;;45.22;15.43;;;5.20;89.90;;;;;;6251925;28;20048;-78
2021/12/20 03:00:26;;;;;;;49.13;13.57;;;5.10;90.10;;;;;;6252827;28;20041;-78
2021/12/20 03:03:28;;;;;;;48.58;15.77;;;5.20;90.10;;;;;;6252786;28;20046;-78
2021/12/20 03:06:39;;;;;;;46.30;14.85;;;5.20;90.20;;;;;;6251689;28;20315;-78
2021/12/20 03:09:49;;;;;;;42.40;14.55;;;5.20;89.90;;;;;;6252586;28;20045;-79
2021/12/20 03:12:51;;;;;;;46.72;14.60;;;5.30;89.60;;;;;;6252590;28;20060;-79
2021/12/20 03:15:53;;;;;;;46.25;14.23;;;5.30;89.50;;;;;;6252381;28;20135;-79
2021/12/20 03:18:55;;;;;;;41.85;13.45;;;5.30;89.60;;;;;;6257606;28;20073;-79
2021/12/20 03:21:58;;;;;;;38.28;13.40;;;5.30;89.60;;;;;;6256618;28;20045;-78
2021/12/20 03:25:00;;;;;;;46.63;15.90;;;5.30;89.50;;;;;;6252018;28;20122;-79
2021/12/20 03:28:02;;;;;;;39.15;13.15;;;5.30;89.30;;;;;;6252251;28;20155;-80
2021/12/20 03:31:03;;;;;;;39.53;12.40;;;5.20;89.40;;;;;;6252546;28;20108;-78
2021/12/20 03:34:06;;;;;;;39.58;13.55;;;5.20;89.50;;;;;;6252718;28;20056;-79
2021/12/20 03:37:10;;;;;;;44.08;14.40;;;5.20;89.60;;;;;;6252163;28;20045;-79
2021/12/20 03:40:13;;;;;;;32.60;12.40;;;5.20;89.70;;;;;;6226150;28;20042;-79
2021/12/20 03:43:17;;;;;;;38.88;13.30;;;5.20;90.10;;;;;;6204902;28;20046;-79
2021/12/20 03:46:19;;;;;;;43.83;14.75;;;5.20;89.50;;;;;;6203294;28;20054;-79
2021/12/20 03:49:21;;;;;;;45.45;14.70;;;5.20;89.60;;;;;;6203402;28;20133;-79
2021/12/20 03:52:24;;;;;;;48.50;14.63;;;5.20;89.40;;;;;;6203043;28;20420;-79
2021/12/20 03:55:25;;;;;;;45.42;13.95;;;5.30;89.30;;;;;;6203225;28;20058;-79
2021/12/20 03:58:28;;;;;;;39.35;14.50;;;5.20;89.10;;;;;;6202963;28;20052;-79
2021/12/20 04:01:30;;;;;;;42.60;14.48;;;5.20;89.30;;;;;;6203347;28;20050;-79
2021/12/20 04:04:32;;;;;;;39.88;12.00;;;5.20;89.10;;;;;;6203051;28;20451;-79
2021/12/20 04:07:35;;;;;;;37.60;13.15;;;5.20;89.30;;;;;;6204569;28;20054;-79
2021/12/20 04:10:38;;;;;;;38.85;13.82;;;5.10;89.40;;;;;;6202152;28;20057;-79
2021/12/20 04:13:40;;;;;;;38.80;14.75;;;5.10;89.50;;;;;;6203189;28;20046;-79
2021/12/20 04:16:42;;;;;;;37.28;12.32;;;5.10;89.60;;;;;;6202604;28;20050;-79
2021/12/20 04:19:43;;;;;;;38.78;11.98;;;5.20;89.40;;;;;;6272807;22;20132;-82
2021/12/20 04:22:46;;;;;;;41.83;15.50;;;5.20;89.20;;;;;;6246720;28;20056;-82
2021/12/20 04:25:49;;;;;;;45.47;11.98;;;5.20;89.20;;;;;;6250792;28;20053;-81
2021/12/20 04:28:51;;;;;;;42.30;12.73;;;5.20;89.30;;;;;;6242861;28;20056;-82
2021/12/20 04:31:53;;;;;;;38.90;11.55;;;5.20;89.10;;;;;;6242578;28;20045;-83
2021/12/20 04:34:55;;;;;;;40.53;12.13;;;5.20;89.00;;;;;;6246546;28;20049;-83
2021/12/20 04:38:00;;;;;;;35.95;12.77;;;5.10;89.20;;;;;;6248766;28;20034;-83
2021/12/20 04:41:02;;;;;;;44.05;15.05;;;5.10;89.50;;;;;;6247713;28;20080;-83
2021/12/20 04:44:04;;;;;;;43.20;14.00;;;5.10;89.50;;;;;;6239974;28;20060;-82
2021/12/20 04:47:06;;;;;;;44.67;15.70;;;5.10;89.50;;;;;;6231339;28;20046;-82
2021/12/20 04:50:09;;;;;;;43.03;13.80;;;5.10;89.50;;;;;;6234385;28;20049;-83
2021/12/20 04:53:12;;;;;;;40.80;12.88;;;5.10;89.60;;;;;;6244316;28;20058;-84
2021/12/20 04:56:14;;;;;;;37.13;12.20;;;5.20;89.50;;;;;;6239994;28;20073;-82
2021/12/20 04:59:16;;;;;;;33.47;12.60;;;5.20;89.40;;;;;;6237555;28;20705;-82
2021/12/20 05:02:18;;;;;;;42.47;12.15;;;5.30;89.30;;;;;;6234441;28;20070;-81
2021/12/20 05:05:21;;;;;;;39.90;11.75;;;5.30;88.90;;;;;;6237559;28;20060;-82
2021/12/20 05:08:32;;;;;;;35.80;11.60;;;5.30;88.90;;;;;;6235461;28;20045;-83
2021/12/20 05:11:35;;;;;;;37.17;11.55;;;5.40;88.80;;;;;;6235321;28;20081;-82
2021/12/20 05:14:58;;;;;;;34.85;12.27;;;5.30;88.90;;;;;;6241921;28;20069;-83
2021/12/20 05:18:16;;;;;;;30.90;11.18;;;5.30;88.90;;;;;;6236621;28;20033;-82
2021/12/20 05:21:18;;;;;;;36.35;11.65;;;5.30;88.80;;;;;;6239428;28;20057;-83
2021/12/20 05:24:21;;;;;;;37.38;12.00;;;5.40;88.80;;;;;;6246324;28;20049;-82
2021/12/20 05:27:24;;;;;;;32.92;10.57;;;5.30;88.50;;;;;;6247367;28;20046;-81
2021/12/20 05:30:25;;;;;;;35.03;11.07;;;5.30;88.40;;;;;;6239504;28;20058;-81
2021/12/20 05:33:28;;;;;;;28.80;11.27;;;5.30;88.60;;;;;;6242340;28;20069;-81
2021/12/20 05:36:29;;;;;;;36.15;12.50;;;5.30;88.60;;;;;;6238431;28;20557;-82
2021/12/20 05:39:32;;;;;;;34.33;11.95;;;5.30;88.60;;;;;;6243999;28;20479;-83
2021/12/20 05:42:34;;;;;;;35.70;10.95;;;5.30;88.60;;;;;;6245506;28;20081;-83
2021/12/20 05:45:36;;;;;;;31.13;10.65;;;5.30;88.50;;;;;;6244218;28;20563;-83
2021/12/20 05:48:38;;;;;;;29.52;12.00;;;5.40;88.40;;;;;;6242733;28;20092;-82
2021/12/20 05:51:40;;;;;;;29.23;11.55;;;5.40;88.10;;;;;;6243330;28;20050;-82
2021/12/20 05:54:43;;;;;;;42.50;12.20;;;5.40;88.20;;;;;;6243741;28;20064;-82
2021/12/20 05:57:46;;;;;;;31.65;11.43;;;5.40;88.40;;;;;;6242840;28;20060;-84
2021/12/20 06:00:48;;;;;;;30.92;10.57;;;5.40;88.10;;;;;;6246163;28;20077;-83
2021/12/20 06:03:49;;;;;;;34.55;11.82;;;5.40;88.20;;;;;;6245502;28;20077;-83
2021/12/20 06:06:51;;;;;;;32.22;11.38;;;5.40;88.40;;;;;;6245072;28;20088;-83
2021/12/20 06:09:54;;;;;;;26.63;10.45;;;5.50;88.40;;;;;;6245054;28;20050;-83
2021/12/20 06:12:56;;;;;;;29.75;11.27;;;5.40;88.10;;;;;;6244855;28;20074;-83
2021/12/20 06:15:58;;;;;;;25.52;12.07;;;5.40;88.30;;;;;;6244027;28;20050;-83
2021/12/20 06:19:00;;;;;;;32.72;11.65;;;5.40;88.40;;;;;;6245236;28;20117;-83
2021/12/20 06:22:01;;;;;;;30.25;10.57;;;5.40;88.30;;;;;;6241504;28;20568;-82
2021/12/20 06:25:06;;;;;;;33.63;12.75;;;5.50;88.10;;;;;;6236501;28;20053;-82
2021/12/20 06:28:07;;;;;;;30.58;10.80;;;5.40;88.10;;;;;;6236521;28;20052;-82
2021/12/20 06:31:09;;;;;;;34.15;11.25;;;5.40;88.20;;;;;;6239894;28;20060;-82
2021/12/20 06:34:11;;;;;;;29.20;10.40;;;5.40;88.10;;;;;;6232709;28;20049;-82
2021/12/20 06:37:13;;;;;;;31.00;11.63;;;5.40;88.10;;;;;;6230912;28;20063;-83
2021/12/20 06:40:16;;;;;;;39.28;15.20;;;5.40;88.30;;;;;;6230388;28;20037;-82
2021/12/20 06:43:19;;;;;;;31.77;11.48;;;5.50;88.30;;;;;;6231997;28;20529;-82
2021/12/20 06:46:22;;;;;;;36.55;11.90;;;5.50;88.10;;;;;;6231018;28;20053;-81
2021/12/20 06:49:25;;;;;;;35.88;12.20;;;5.50;88.10;;;;;;6231287;28;20046;-82
2021/12/20 06:52:27;;;;;;;31.63;11.15;;;5.50;88.40;;;;;;6231013;28;20042;-82
2021/12/20 06:55:30;;;;;;;37.53;11.95;;;5.50;88.10;;;;;;6231078;28;20077;-82
2021/12/20 06:58:32;;;;;;;36.67;12.18;;;5.50;88.20;;;;;;6230062;28;20054;-81
2021/12/20 07:01:33;;;;;;;33.15;12.15;;;5.50;88.70;;;;;;6229924;28;20045;-81
2021/12/20 07:04:35;;;;;;;24.80;10.90;;;5.40;88.50;;;;;;6228841;28;20172;-82
2021/12/20 07:07:37;;;;;;;34.22;11.68;;;5.50;88.40;;;;;;6228892;28;20131;-81
2021/12/20 07:10:41;;;;;;;35.33;13.20;;;5.50;88.30;;;;;;6229531;28;20143;-81
2021/12/20 07:13:42;;;;;;;25.75;10.20;;;5.60;88.30;;;;;;6229177;28;20164;-81
2021/12/20 07:16:44;;;;;;;36.22;11.85;;;5.60;87.90;;;;;;6229528;28;20049;-83
2021/12/20 07:19:46;;;;;;;33.53;12.65;;;5.60;88.20;;;;;;6232171;28;20049;-80
2021/12/20 07:22:48;;;;;;;28.80;11.82;;;5.70;88.10;;;;;;6230493;28;20054;-81
2021/12/20 07:25:52;;;;;;;33.83;11.15;;;5.60;88.10;;;;;;6229295;28;20045;-81
2021/12/20 07:28:54;;;;;;;27.60;11.48;;;5.60;88.00;;;;;;6230013;28;20046;-82
2021/12/20 07:31:56;;;;;;;26.67;11.23;;;5.60;87.80;;;;;;6228410;28;20462;-80
2021/12/20 07:34:58;;;;;;;32.15;11.57;;;5.60;87.80;;;;;;6230449;28;20541;-81
2021/12/20 07:38:01;;;;;;;33.88;11.90;;;5.70;87.80;;;;;;6232037;28;20046;-81
2021/12/20 07:41:05;;;;;;;26.52;10.93;;;5.70;87.80;;;;;;6236035;28;20065;-81
2021/12/20 07:44:07;;;;;;;32.67;11.88;;;5.80;87.70;;;;;;6235008;28;20053;-82
2021/12/20 07:47:09;;;;;;;27.83;10.98;;;5.80;87.60;;;;;;6233924;28;20197;-81
2021/12/20 07:50:11;;;;;;;29.92;11.48;;;5.90;87.50;;;;;;6233503;28;20050;-81
2021/12/20 07:53:13;;;;;;;35.20;13.55;;;5.80;87.30;;;;;;6234072;28;20065;-82
2021/12/20 07:56:17;;;;;;;29.88;12.32;;;5.80;87.20;;;;;;6233566;28;20414;-82
2021/12/20 07:59:19;;;;;;;23.80;10.57;;;5.80;87.40;;;;;;6232352;28;20574;-82
2021/12/20 08:02:21;;;;;;;30.13;11.85;;;5.80;87.20;;;;;;6233505;28;20132;-82
2021/12/20 08:05:22;;;;;;;29.20;11.25;;;5.90;87.00;;;;;;6233669;28;20050;-81
2021/12/20 08:08:24;;;;;;;28.90;11.48;;;5.90;86.90;;;;;;6234041;28;20160;-81
2021/12/20 08:11:27;;;;;;;30.95;12.65;;;5.90;87.70;;;;;;6234987;28;20054;-81
2021/12/20 08:14:29;;;;;;;27.58;11.68;;;6.00;86.90;;;;;;6233800;28;20628;-81
2021/12/20 08:17:32;;;;;;;36.92;11.52;;;6.00;86.70;;;;;;6231331;28;20048;-82
2021/12/20 08:20:34;;;;;;;24.27;10.10;;;6.00;86.60;;;;;;6232874;28;20125;-82
2021/12/20 08:23:37;;;;;;;25.65;10.57;;;6.00;86.70;;;;;;6233345;28;20054;-80
2021/12/20 08:26:40;;;;;;;28.70;10.57;;;6.10;86.80;;;;;;6257581;28;20076;-82
2021/12/20 08:29:42;;;;;;;28.08;10.48;;;6.10;86.60;;;;;;6256532;28;20284;-80
2021/12/20 08:32:44;;;;;;;28.70;12.27;;;6.30;86.50;;;;;;6257844;28;20586;-82
2021/12/20 08:35:49;;;;;;;32.60;12.45;;;6.20;86.30;;;;;;6256174;28;20049;-82
2021/12/20 08:38:51;;;;;;;35.17;12.30;;;6.30;86.20;;;;;;6252325;28;20064;-82
2021/12/20 08:41:54;;;;;;;34.67;11.23;;;6.30;86.10;;;;;;6252027;28;20064;-82
2021/12/20 08:44:56;;;;;;;28.13;10.45;;;6.40;86.00;;;;;;6250912;28;20052;-82
2021/12/20 08:47:58;;;;;;;27.25;11.32;;;6.50;85.90;;;;;;6216657;28;20046;-81
2021/12/20 08:51:02;;;;;;;26.95;10.68;;;6.50;85.50;;;;;;6225505;28;20050;-80
2021/12/20 08:54:04;;;;;;;31.23;11.32;;;6.50;85.40;;;;;;6225599;28;20085;-80
2021/12/20 08:57:08;;;;;;;31.80;11.77;;;6.60;85.30;;;;;;6231151;28;20108;-80
2021/12/20 09:00:14;;;;;;;26.33;11.40;;;6.70;85.20;;;;;;6232422;28;20399;-78
2021/12/20 09:03:16;;;;;;;22.88;11.13;;;6.70;84.60;;;;;;6232179;28;20058;-79
2021/12/20 09:06:21;;;;;;;25.15;10.63;;;6.70;84.70;;;;;;6230961;28;20057;-80
2021/12/20 09:09:23;;;;;;;27.23;10.63;;;6.80;85.00;;;;;;6231671;28;20056;-78
2021/12/20 09:12:26;;;;;;;27.80;12.40;;;6.90;84.60;;;;;;6231042;28;20069;-81
2021/12/20 09:15:28;;;;;;;30.92;11.93;;;6.90;84.50;;;;;;6231357;28;20054;-79
2021/12/20 09:18:30;;;;;;;24.00;9.75;;;7.00;84.30;;;;;;6229489;28;20407;-79
2021/12/20 09:21:33;;;;;;;28.98;11.80;;;7.10;84.30;;;;;;6229354;28;20069;-80
2021/12/20 09:24:35;;;;;;;31.73;12.60;;;7.20;83.90;;;;;;6229250;28;20053;-79
2021/12/20 09:27:39;;;;;;;24.02;9.93;;;7.30;83.70;;;;;;6232609;28;20087;-78
2021/12/20 09:30:43;;;;;;;29.05;10.48;;;7.40;83.50;;;;;;6232020;28;20049;-78
2021/12/20 09:33:44;;;;;;;29.73;11.50;;;7.40;82.80;;;;;;6231185;28;20466;-78
2021/12/20 09:36:47;;;;;;;27.33;11.60;;;7.40;82.70;;;;;;6231391;28;20390;-80
2021/12/20 09:39:53;;;;;;;35.60;12.98;;;7.50;82.80;;;;;;6231170;28;20050;-79
2021/12/20 09:42:56;;;;;;;26.55;11.00;;;7.60;82.60;;;;;;6233743;28;20069;-79
2021/12/20 09:45:58;;;;;;;29.50;12.68;;;7.60;82.30;;;;;;6241078;28;20049;-80
2021/12/20 09:49:00;;;;;;;23.67;10.48;;;7.80;84.40;;;;;;6230012;28;20046;-79
2021/12/20 09:52:02;;;;;;;24.02;11.63;;;8.00;83.00;;;;;;6229904;28;20519;-79
2021/12/20 09:55:05;;;;;;;23.42;10.32;;;8.10;82.10;;;;;;6230277;28;20054;-78
2021/12/20 09:58:08;;;;;;;27.17;11.45;;;8.20;81.50;;;;;;6229450;28;20649;-78
2021/12/20 10:01:13;;;;;;;25.27;10.30;;;8.40;80.80;;;;;;6228598;28;20049;-79
2021/12/20 10:04:16;;;;;;;25.00;11.40;;;8.60;80.20;;;;;;6229090;28;20324;-78
2021/12/20 10:07:23;;;;;;;28.27;13.23;;;8.70;80.30;;;;;;6227874;28;20085;-79
2021/12/20 10:10:40;;;;;;;24.10;10.73;;;8.80;78.80;;;;;;6229321;28;20042;-79
2021/12/20 10:13:43;;;;;;;32.30;14.23;;;8.90;78.10;;;;;;6229314;28;20056;-79
2021/12/20 10:16:46;;;;;;;21.58;8.98;;;9.10;78.30;;;;;;6228536;28;20464;-78
2021/12/20 10:19:48;;;;;;;23.95;11.40;;;9.20;76.30;;;;;;6251766;22;20111;-79
2021/12/20 10:22:50;;;;;;;25.38;11.63;;;9.30;76.00;;;;;;6229636;28;20106;-79
2021/12/20 10:25:54;;;;;;;23.90;10.93;;;9.30;75.90;;;;;;6229227;28;20136;-79
2021/12/20 10:28:57;;;;;;;24.67;12.15;;;9.40;75.30;;;;;;6229500;28;20450;-78
2021/12/20 10:31:59;;;;;;;30.52;11.63;;;9.50;75.60;;;;;;6229612;28;20049;-79
2021/12/20 10:35:01;;;;;;;27.58;10.65;;;9.60;75.10;;;;;;6229389;28;20054;-79
2021/12/20 10:38:05;;;;;;;25.90;11.52;;;9.60;75.20;;;;;;6229323;28;20034;-79
2021/12/20 10:41:13;;;;;;;22.77;10.60;;;9.70;75.20;;;;;;6229004;28;20069;-79
2021/12/20 10:44:19;;;;;;;31.95;13.32;;;9.80;74.70;;;;;;6228567;28;20112;-79
2021/12/20 10:47:28;;;;;;;31.05;12.35;;;9.80;74.30;;;;;;6226660;28;20057;-79
2021/12/20 10:50:32;;;;;;;22.88;11.00;;;9.80;74.20;;;;;;6227813;28;20053;-79
2021/12/20 10:53:34;;;;;;;25.05;11.43;;;9.80;74.30;;;;;;6229509;28;20050;-80
2021/12/20 10:56:38;;;;;;;25.45;11.52;;;9.80;74.20;;;;;;6228292;28;20065;-79
2021/12/20 10:59:41;;;;;;;24.80;11.32;;;9.80;74.20;;;;;;6229114;28;20041;-79
2021/12/20 11:03:19;;;;;;;28.40;11.73;;;9.80;73.90;;;;;;6229109;28;20423;-79
2021/12/20 11:06:39;;;;;;;23.42;10.25;;;9.80;74.00;;;;;;6204069;28;20046;-79
2021/12/20 11:09:43;;;;;;;29.13;12.05;;;9.90;73.90;;;;;;6204241;28;20046;-79
2021/12/20 11:12:45;;;;;;;29.73;10.73;;;9.90;73.80;;;;;;6204562;28;20042;-79
2021/12/20 11:15:49;;;;;;;26.95;11.00;;;10.00;74.00;;;;;;6205092;28;20464;-79
2021/12/20 11:19:19;;;;;;;28.13;10.23;;;10.10;73.70;;;;;;6205062;28;20428;-79
2021/12/20 11:22:26;;;;;;;30.95;13.38;;;10.20;73.30;;;;;;6223060;28;20177;-79
2021/12/20 11:25:28;;;;;;;27.85;11.55;;;10.30;72.90;;;;;;6230256;28;20093;-78
2021/12/20 11:28:30;;;;;;;28.92;11.65;;;10.40;72.60;;;;;;6228557;28;20042;-79
2021/12/20 11:31:33;;;;;;;38.60;11.60;;;10.40;72.50;;;;;;6228513;28;20095;-79
2021/12/20 11:34:37;;;;;;;31.00;12.57;;;10.40;72.60;;;;;;6228553;28;20446;-79
2021/12/20 11:37:39;;;;;;;25.90;11.50;;;10.40;71.10;;;;;;6228047;28;20060;-79
2021/12/20 11:40:42;;;;;;;25.38;11.35;;;10.10;71.80;;;;;;6229597;28;20127;-79
2021/12/20 11:43:45;;;;;;;27.20;11.13;;;10.10;73.10;;;;;;6229361;28;20050;-79
2021/12/20 11:47:08;;;;;;;22.17;10.25;;;10.30;72.80;;;;;;6220954;28;20058;-79
2021/12/20 11:50:12;;;;;;;25.92;11.20;;;10.60;72.30;;;;;;6227750;28;20117;-79
2021/12/20 11:53:16;;;;;;;24.75;10.75;;;10.80;71.60;;;;;;6229220;28;20050;-79
2021/12/20 11:56:34;;;;;;;26.50;10.88;;;11.00;71.00;;;;;;6227679;28;20072;-79
2021/12/20 11:59:51;;;;;;;24.90;11.45;;;11.00;70.60;;;;;;6227317;28;20180;-79
2021/12/20 12:02:57;;;;;;;22.65;9.13;;;11.00;70.80;;;;;;6203554;28;20094;-78
2021/12/20 12:06:00;;;;;;;27.35;11.25;;;10.80;69.50;;;;;;6205516;28;20059;-78
2021/12/20 12:09:02;;;;;;;24.90;9.65;;;10.30;69.90;;;;;;6201866;28;20113;-79
2021/12/20 12:12:25;;;;;;;19.80;8.95;;;9.90;71.50;;;;;;6202322;28;20503;-79
2021/12/20 12:15:39;;;;;;;23.35;9.65;;;9.70;72.60;;;;;;6212605;28;20199;-79
2021/12/20 12:18:48;;;;;;;23.27;10.00;;;9.50;73.20;;;;;;6224234;28;20513;-78
2021/12/20 12:21:50;;;;;;;24.35;10.32;;;9.30;73.70;;;;;;6242182;28;20077;-79
2021/12/20 12:24:52;;;;;;;21.48;8.63;;;9.30;74.60;;;;;;6250612;28;20049;-79
2021/12/20 12:27:58;;;;;;;19.73;9.18;;;9.30;74.10;;;;;;6250873;28;20204;-79
2021/12/20 12:31:03;;;;;;;19.63;8.88;;;9.20;74.10;;;;;;6252294;28;20049;-79
2021/12/20 12:34:08;;;;;;;21.20;9.43;;;9.10;74.60;;;;;;6256423;28;20096;-79
2021/12/20 12:37:20;;;;;;;17.52;8.15;;;9.00;75.00;;;;;;6256252;28;20073;-80
2021/12/20 12:40:23;;;;;;;23.63;9.85;;;8.90;75.20;;;;;;6256669;28;20048;-79
2021/12/20 12:43:48;;;;;;;20.55;8.82;;;8.80;75.60;;;;;;6257032;28;20045;-79
2021/12/20 12:47:00;;;;;;;17.67;8.35;;;8.70;76.00;;;;;;6222581;28;20056;-79
2021/12/20 12:50:05;;;;;;;28.92;9.40;;;8.70;76.10;;;;;;6229781;28;20124;-80
2021/12/20 12:53:34;;;;;;;17.75;7.78;;;8.80;76.40;;;;;;6231070;28;20503;-79
2021/12/20 12:56:37;;;;;;;17.10;8.95;;;8.90;75.70;;;;;;6230231;28;20046;-79
2021/12/20 12:59:42;;;;;;;21.70;10.55;;;8.90;76.10;;;;;;6227834;28;20133;-79
2021/12/20 13:02:48;;;;;;;22.35;7.70;;;8.80;75.60;;;;;;6230530;28;20491;-79
2021/12/20 13:05:51;;;;;;;15.50;8.10;;;8.80;75.70;;;;;;6230247;28;20046;-79
2021/12/20 13:08:54;;;;;;;19.35;7.93;;;8.90;76.00;;;;;;6229117;28;20042;-79
2021/12/20 13:12:08;;;;;;;22.88;8.15;;;9.10;74.80;;;;;;6230052;28;20054;-79
2021/12/20 13:15:16;;;;;;;20.52;7.03;;;9.20;74.10;;;;;;6230927;28;20124;-79
2021/12/20 13:18:22;;;;;;;14.90;6.95;;;9.20;73.70;;;;;;6229681;28;20061;-79
2021/12/20 13:21:37;;;;;;;23.27;7.55;;;9.40;73.20;;;;;;6229698;28;20057;-80
2021/12/20 13:24:40;;;;;;;12.75;5.72;;;9.50;72.90;;;;;;6228887;28;20203;-80
2021/12/20 13:27:41;;;;;;;12.30;5.47;;;9.60;72.40;;;;;;6230171;28;20049;-79
2021/12/20 13:30:47;;;;;;;17.67;6.35;;;9.60;70.40;;;;;;6229797;28;20046;-81
2021/12/20 13:33:51;;;;;;;9.48;4.60;;;9.50;71.10;;;;;;6230118;28;20149;-79
2021/12/20 13:36:56;;;;;;;16.10;6.20;;;9.40;70.90;;;;;;6240021;28;20041;-79
2021/12/20 13:39:58;;;;;;;11.57;5.18;;;9.20;70.30;;;;;;6260014;28;20087;-80
2021/12/20 13:43:00;;;;;;;18.40;8.18;;;9.10;71.10;;;;;;6257027;28;20056;-80
2021/12/20 13:46:18;;;;;;;12.30;5.97;;;8.90;71.60;;;;;;6254511;28;20069;-80
2021/12/20 13:49:26;;;;;;;10.38;5.32;;;9.00;71.50;;;;;;6247672;28;20125;-80
2021/12/20 13:52:29;;;;;;;11.65;6.03;;;9.20;71.70;;;;;;6254275;28;20068;-80
2021/12/20 13:55:31;;;;;;;15.55;7.05;;;9.30;70.60;;;;;;6254775;28;20059;-80
2021/12/20 13:58:33;;;;;;;11.88;4.93;;;9.20;70.00;;;;;;6253538;28;20051;-79
2021/12/20 14:01:35;;;;;;;12.10;4.97;;;9.10;70.40;;;;;;6253875;28;20049;-79
2021/12/20 14:04:38;;;;;;;22.15;6.18;;;8.90;70.80;;;;;;6253809;28;20406;-80
2021/12/20 14:07:45;;;;;;;17.80;8.23;;;8.80;70.90;;;;;;6253691;28;20195;-79
2021/12/20 14:10:47;;;;;;;18.38;9.23;;;8.80;71.40;;;;;;6253640;28;20410;-78
2021/12/20 14:13:48;;;;;;;16.95;7.57;;;8.80;71.40;;;;;;6253344;28;20052;-78
2021/12/20 14:16:58;;;;;;;16.08;6.65;;;8.80;71.60;;;;;;6252695;28;20047;-78
2021/12/20 14:20:04;;;;;;;8.70;5.10;;;8.90;71.80;;;;;;6252555;28;20053;-78
2021/12/20 14:23:09;;;;;;;14.85;5.43;;;9.00;71.50;;;;;;6245697;28;20060;-79
2021/12/20 14:26:13;;;;;;;11.80;5.05;;;9.10;71.10;;;;;;6253690;28;20046;-79
2021/12/20 14:29:16;;;;;;;13.23;4.85;;;9.00;70.90;;;;;;6254202;28;20561;-81
2021/12/20 14:32:36;;;;;;;10.25;5.22;;;8.90;71.10;;;;;;6253032;28;20533;-78
2021/12/20 14:35:38;;;;;;;17.25;4.85;;;8.70;71.00;;;;;;6253375;28;20051;-79
2021/12/20 14:38:44;;;;;;;12.07;4.25;;;8.40;71.30;;;;;;6253286;28;20067;-79
2021/12/20 14:41:50;;;;;;;14.52;4.63;;;8.30;71.90;;;;;;6252803;28;20157;-78
2021/12/20 14:44:58;;;;;;;14.27;5.30;;;8.10;72.30;;;;;;6251861;28;20562;-78
2021/12/20 14:48:20;;;;;;;19.05;6.18;;;8.00;72.80;;;;;;6252874;28;20045;-80
2021/12/20 14:51:25;;;;;;;15.38;5.28;;;7.90;73.20;;;;;;6250078;28;20088;-81
2021/12/20 14:54:29;;;;;;;12.23;5.75;;;7.80;73.10;;;;;;6251537;28;20048;-79
2021/12/20 14:57:32;;;;;;;17.60;4.47;;;7.70;73.50;;;;;;6252924;28;20562;-79
2021/12/20 15:00:35;;;;;;;15.68;5.18;;;7.70;73.80;;;;;;6252272;28;20041;-79
2021/12/20 15:03:42;;;;;;;18.88;6.32;;;7.60;73.80;;;;;;6252487;28;20485;-79
2021/12/20 15:06:47;;;;;;;17.60;5.18;;;7.50;74.00;;;;;;6252095;28;20175;-80
2021/12/20 15:09:50;;;;;;;14.70;5.40;;;7.40;74.10;;;;;;6252095;28;20042;-78
2021/12/20 15:12:52;;;;;;;8.80;4.20;;;7.40;74.40;;;;;;6252800;28;20060;-78
2021/12/20 15:15:54;;;;;;;19.40;6.32;;;7.30;74.60;;;;;;6252260;28;20053;-81
2021/12/20 15:18:55;;;;;;;13.00;4.65;;;7.10;74.80;;;;;;6252507;28;20408;-78
2021/12/20 15:21:57;;;;;;;9.30;4.97;;;7.10;75.00;;;;;;6252169;28;20050;-79
2021/12/20 15:25:00;;;;;;;10.80;5.20;;;7.00;75.30;;;;;;6251969;28;20069;-81
2021/12/20 15:28:02;;;;;;;15.73;6.25;;;6.90;76.10;;;;;;6251649;28;20515;-78
2021/12/20 15:31:04;;;;;;;10.88;4.20;;;6.80;76.20;;;;;;6252963;28;20128;-79
2021/12/20 15:34:07;;;;;;;10.68;4.82;;;6.70;76.10;;;;;;6252531;28;20049;-79
2021/12/20 15:37:08;;;;;;;14.05;4.47;;;6.50;76.30;;;;;;6252155;28;20132;-78
2021/12/20 15:40:13;;;;;;;11.63;4.57;;;6.40;76.80;;;;;;6252019;28;20076;-79
2021/12/20 15:43:15;;;;;;;16.20;5.25;;;6.30;77.20;;;;;;6254366;28;20053;-79
2021/12/20 15:46:17;;;;;;;12.15;3.88;;;6.10;77.30;;;;;;6253455;28;20052;-79
2021/12/20 15:49:19;;;;;;;16.20;6.07;;;6.00;77.70;;;;;;6250094;28;20045;-79
2021/12/20 15:52:21;;;;;;;13.93;4.55;;;5.80;77.90;;;;;;6252128;28;20080;-80
2021/12/20 15:55:24;;;;;;;12.25;4.80;;;5.70;78.30;;;;;;6253037;28;20050;-79
2021/12/20 15:58:26;;;;;;;16.35;5.50;;;5.50;78.60;;;;;;6251417;28;20175;-80
2021/12/20 16:01:28;;;;;;;10.07;4.80;;;5.30;79.10;;;;;;6250703;28;20052;-79